sensor_id;sensor_type;location;lat;lon;timestamp;P1;durP1;ratioP1;P2;durP2;ratioP2
82787;SDS011;72529;51.786;4.662;2024-03-07T00:01:47;47.03;;;45.66;;
82787;SDS011;72529;51.786;4.662;2024-03-07T00:04:13;46.67;;;45.23;;
82787;SDS011;72529;51.786;4.662;2024-03-07T00:06:38;46.71;;;45.31;;
82787;SDS011;72529;51.786;4.662;2024-03-07T00:09:05;47.40;;;46.00;;
82787;SDS011;72529;51.786;4.662;2024-03-07T00:11:31;47.88;;;45.90;;
82787;SDS011;72529;51.786;4.662;2024-03-07T00:13:56;47.92;;;46.07;;
82787;SDS011;72529;51.786;4.662;2024-03-07T00:16:22;46.80;;;45.74;;
82787;SDS011;72529;51.786;4.662;2024-03-07T00:18:47;46.20;;;44.91;;
82787;SDS011;72529;51.786;4.662;2024-03-07T00:21:13;45.81;;;44.77;;
82787;SDS011;72529;51.786;4.662;2024-03-07T00:23:38;48.52;;;47.07;;
82787;SDS011;72529;51.786;4.662;2024-03-07T00:26:04;46.25;;;44.99;;
82787;SDS011;72529;51.786;4.662;2024-03-07T00:28:29;46.70;;;45.66;;
82787;SDS011;72529;51.786;4.662;2024-03-07T00:30:58;47.01;;;45.58;;
82787;SDS011;72529;51.786;4.662;2024-03-07T00:33:23;47.33;;;46.02;;
82787;SDS011;72529;51.786;4.662;2024-03-07T00:35:50;47.19;;;45.70;;
82787;SDS011;72529;51.786;4.662;2024-03-07T00:38:15;47.60;;;46.09;;
82787;SDS011;72529;51.786;4.662;2024-03-07T00:40:41;47.27;;;45.70;;
82787;SDS011;72529;51.786;4.662;2024-03-07T00:43:06;46.92;;;45.56;;
82787;SDS011;72529;51.786;4.662;2024-03-07T00:45:32;46.72;;;45.42;;
82787;SDS011;72529;51.786;4.662;2024-03-07T00:47:57;48.28;;;46.81;;
82787;SDS011;72529;51.786;4.662;2024-03-07T00:50:24;46.93;;;45.70;;
82787;SDS011;72529;51.786;4.662;2024-03-07T00:52:50;46.58;;;45.42;;
82787;SDS011;72529;51.786;4.662;2024-03-07T00:55:15;47.18;;;45.73;;
82787;SDS011;72529;51.786;4.662;2024-03-07T00:57:41;47.27;;;45.78;;
82787;SDS011;72529;51.786;4.662;2024-03-07T01:00:07;48.05;;;46.57;;
82787;SDS011;72529;51.786;4.662;2024-03-07T01:02:39;48.59;;;47.26;;
82787;SDS011;72529;51.786;4.662;2024-03-07T01:05:08;47.25;;;45.92;;
82787;SDS011;72529;51.786;4.662;2024-03-07T01:07:35;46.76;;;45.57;;
82787;SDS011;72529;51.786;4.662;2024-03-07T01:10:02;48.04;;;46.61;;
82787;SDS011;72529;51.786;4.662;2024-03-07T01:12:31;48.68;;;46.96;;
82787;SDS011;72529;51.786;4.662;2024-03-07T01:14:57;49.08;;;47.25;;
82787;SDS011;72529;51.786;4.662;2024-03-07T01:17:23;49.09;;;47.49;;
82787;SDS011;72529;51.786;4.662;2024-03-07T01:19:49;48.68;;;47.09;;
82787;SDS011;72529;51.786;4.662;2024-03-07T01:22:14;50.74;;;48.49;;
82787;SDS011;72529;51.786;4.662;2024-03-07T01:24:40;48.62;;;46.97;;
82787;SDS011;72529;51.786;4.662;2024-03-07T01:27:05;50.10;;;48.52;;
82787;SDS011;72529;51.786;4.662;2024-03-07T01:29:31;48.23;;;46.86;;
82787;SDS011;72529;51.786;4.662;2024-03-07T01:31:56;49.09;;;47.46;;
82787;SDS011;72529;51.786;4.662;2024-03-07T01:34:22;49.26;;;47.65;;
82787;SDS011;72529;51.786;4.662;2024-03-07T01:36:47;50.46;;;48.75;;
82787;SDS011;72529;51.786;4.662;2024-03-07T01:39:12;50.29;;;48.62;;
82787;SDS011;72529;51.786;4.662;2024-03-07T01:41:39;50.07;;;48.33;;
82787;SDS011;72529;51.786;4.662;2024-03-07T01:44:05;49.74;;;47.96;;
82787;SDS011;72529;51.786;4.662;2024-03-07T01:46:32;49.69;;;48.05;;
82787;SDS011;72529;51.786;4.662;2024-03-07T01:48:58;49.63;;;48.49;;
82787;SDS011;72529;51.786;4.662;2024-03-07T01:51:24;49.22;;;47.90;;
82787;SDS011;72529;51.786;4.662;2024-03-07T01:53:51;50.06;;;48.14;;
82787;SDS011;72529;51.786;4.662;2024-03-07T01:56:18;49.63;;;47.77;;
82787;SDS011;72529;51.786;4.662;2024-03-07T01:58:46;48.91;;;47.37;;
82787;SDS011;72529;51.786;4.662;2024-03-07T02:01:12;48.84;;;47.25;;
82787;SDS011;72529;51.786;4.662;2024-03-07T02:03:40;50.54;;;48.81;;
82787;SDS011;72529;51.786;4.662;2024-03-07T02:06:07;49.76;;;48.30;;
82787;SDS011;72529;51.786;4.662;2024-03-07T02:08:33;50.86;;;49.16;;
82787;SDS011;72529;51.786;4.662;2024-03-07T02:11:00;49.99;;;48.57;;
82787;SDS011;72529;51.786;4.662;2024-03-07T02:13:26;49.94;;;48.14;;
82787;SDS011;72529;51.786;4.662;2024-03-07T02:15:52;50.68;;;49.01;;
82787;SDS011;72529;51.786;4.662;2024-03-07T02:18:18;50.13;;;48.26;;
82787;SDS011;72529;51.786;4.662;2024-03-07T02:20:45;52.10;;;50.20;;
82787;SDS011;72529;51.786;4.662;2024-03-07T02:23:11;50.79;;;49.27;;
82787;SDS011;72529;51.786;4.662;2024-03-07T02:25:37;51.76;;;49.77;;
82787;SDS011;72529;51.786;4.662;2024-03-07T02:28:05;51.15;;;49.47;;
82787;SDS011;72529;51.786;4.662;2024-03-07T02:30:32;50.21;;;48.69;;
82787;SDS011;72529;51.786;4.662;2024-03-07T02:32:58;51.46;;;49.77;;
82787;SDS011;72529;51.786;4.662;2024-03-07T02:35:32;52.88;;;51.01;;
82787;SDS011;72529;51.786;4.662;2024-03-07T02:37:59;51.24;;;49.70;;
82787;SDS011;72529;51.786;4.662;2024-03-07T02:40:24;51.18;;;49.92;;
82787;SDS011;72529;51.786;4.662;2024-03-07T02:42:49;51.03;;;49.27;;
82787;SDS011;72529;51.786;4.662;2024-03-07T02:45:15;50.29;;;48.54;;
82787;SDS011;72529;51.786;4.662;2024-03-07T02:47:41;50.70;;;48.79;;
82787;SDS011;72529;51.786;4.662;2024-03-07T02:50:08;50.65;;;48.94;;
82787;SDS011;72529;51.786;4.662;2024-03-07T02:52:34;50.64;;;48.82;;
82787;SDS011;72529;51.786;4.662;2024-03-07T02:55:00;49.96;;;48.39;;
82787;SDS011;72529;51.786;4.662;2024-03-07T02:57:25;50.35;;;48.61;;
82787;SDS011;72529;51.786;4.662;2024-03-07T02:59:50;50.21;;;48.71;;
82787;SDS011;72529;51.786;4.662;2024-03-07T03:02:16;51.76;;;50.05;;
82787;SDS011;72529;51.786;4.662;2024-03-07T03:04:41;52.81;;;51.12;;
82787;SDS011;72529;51.786;4.662;2024-03-07T03:07:07;53.33;;;51.68;;
82787;SDS011;72529;51.786;4.662;2024-03-07T03:09:33;54.99;;;52.86;;
82787;SDS011;72529;51.786;4.662;2024-03-07T03:11:58;53.46;;;51.82;;
82787;SDS011;72529;51.786;4.662;2024-03-07T03:14:24;53.18;;;51.14;;
82787;SDS011;72529;51.786;4.662;2024-03-07T03:16:49;53.36;;;51.53;;
82787;SDS011;72529;51.786;4.662;2024-03-07T03:19:15;53.91;;;52.27;;
82787;SDS011;72529;51.786;4.662;2024-03-07T03:21:40;53.34;;;51.83;;
82787;SDS011;72529;51.786;4.662;2024-03-07T03:24:07;54.14;;;52.38;;
82787;SDS011;72529;51.786;4.662;2024-03-07T03:26:33;54.73;;;53.17;;
82787;SDS011;72529;51.786;4.662;2024-03-07T03:28:58;53.67;;;52.26;;
82787;SDS011;72529;51.786;4.662;2024-03-07T03:31:24;54.31;;;52.62;;
82787;SDS011;72529;51.786;4.662;2024-03-07T03:33:50;52.85;;;51.43;;
82787;SDS011;72529;51.786;4.662;2024-03-07T03:36:16;55.79;;;54.04;;
82787;SDS011;72529;51.786;4.662;2024-03-07T03:38:41;55.82;;;53.69;;
82787;SDS011;72529;51.786;4.662;2024-03-07T03:41:07;54.35;;;52.79;;
82787;SDS011;72529;51.786;4.662;2024-03-07T03:43:32;54.62;;;53.19;;
82787;SDS011;72529;51.786;4.662;2024-03-07T03:45:58;53.32;;;51.79;;
82787;SDS011;72529;51.786;4.662;2024-03-07T03:48:23;55.24;;;53.13;;
82787;SDS011;72529;51.786;4.662;2024-03-07T03:50:49;54.63;;;53.06;;
82787;SDS011;72529;51.786;4.662;2024-03-07T03:53:14;55.90;;;54.04;;
82787;SDS011;72529;51.786;4.662;2024-03-07T03:55:39;55.02;;;53.51;;
82787;SDS011;72529;51.786;4.662;2024-03-07T03:58:05;56.17;;;54.41;;
82787;SDS011;72529;51.786;4.662;2024-03-07T04:00:30;55.23;;;53.65;;
82787;SDS011;72529;51.786;4.662;2024-03-07T04:02:56;55.43;;;53.39;;
82787;SDS011;72529;51.786;4.662;2024-03-07T04:05:21;55.11;;;53.76;;
82787;SDS011;72529;51.786;4.662;2024-03-07T04:07:47;56.24;;;54.80;;
82787;SDS011;72529;51.786;4.662;2024-03-07T04:10:14;55.60;;;54.08;;
82787;SDS011;72529;51.786;4.662;2024-03-07T04:12:41;56.71;;;55.20;;
82787;SDS011;72529;51.786;4.662;2024-03-07T04:15:08;57.44;;;55.51;;
82787;SDS011;72529;51.786;4.662;2024-03-07T04:17:36;56.73;;;55.10;;
82787;SDS011;72529;51.786;4.662;2024-03-07T04:20:05;56.25;;;54.83;;
82787;SDS011;72529;51.786;4.662;2024-03-07T04:22:32;55.73;;;54.39;;
82787;SDS011;72529;51.786;4.662;2024-03-07T04:24:59;57.94;;;55.90;;
82787;SDS011;72529;51.786;4.662;2024-03-07T04:27:26;57.43;;;55.49;;
82787;SDS011;72529;51.786;4.662;2024-03-07T04:29:52;59.38;;;57.11;;
82787;SDS011;72529;51.786;4.662;2024-03-07T04:32:17;57.78;;;56.05;;
82787;SDS011;72529;51.786;4.662;2024-03-07T04:34:46;57.52;;;56.13;;
82787;SDS011;72529;51.786;4.662;2024-03-07T04:37:12;57.82;;;56.35;;
82787;SDS011;72529;51.786;4.662;2024-03-07T04:39:41;57.35;;;55.89;;
82787;SDS011;72529;51.786;4.662;2024-03-07T04:42:07;56.59;;;55.17;;
82787;SDS011;72529;51.786;4.662;2024-03-07T04:44:34;56.88;;;55.50;;
82787;SDS011;72529;51.786;4.662;2024-03-07T04:47:01;57.32;;;55.31;;
82787;SDS011;72529;51.786;4.662;2024-03-07T04:49:30;57.69;;;55.74;;
82787;SDS011;72529;51.786;4.662;2024-03-07T04:51:57;58.04;;;56.46;;
82787;SDS011;72529;51.786;4.662;2024-03-07T04:54:25;56.96;;;55.38;;
82787;SDS011;72529;51.786;4.662;2024-03-07T04:56:51;55.82;;;54.48;;
82787;SDS011;72529;51.786;4.662;2024-03-07T04:59:18;55.98;;;54.50;;
82787;SDS011;72529;51.786;4.662;2024-03-07T05:01:45;57.28;;;55.26;;
82787;SDS011;72529;51.786;4.662;2024-03-07T05:04:11;56.24;;;54.41;;
82787;SDS011;72529;51.786;4.662;2024-03-07T05:06:38;56.91;;;55.33;;
82787;SDS011;72529;51.786;4.662;2024-03-07T05:09:05;57.73;;;56.05;;
82787;SDS011;72529;51.786;4.662;2024-03-07T05:11:32;56.79;;;54.86;;
82787;SDS011;72529;51.786;4.662;2024-03-07T05:14:00;57.87;;;56.21;;
82787;SDS011;72529;51.786;4.662;2024-03-07T05:16:29;57.25;;;55.31;;
82787;SDS011;72529;51.786;4.662;2024-03-07T05:18:56;57.30;;;55.59;;
82787;SDS011;72529;51.786;4.662;2024-03-07T05:21:24;55.70;;;53.88;;
82787;SDS011;72529;51.786;4.662;2024-03-07T05:24:06;56.99;;;55.04;;
82787;SDS011;72529;51.786;4.662;2024-03-07T05:26:36;58.62;;;56.54;;
82787;SDS011;72529;51.786;4.662;2024-03-07T05:29:06;57.09;;;55.59;;
82787;SDS011;72529;51.786;4.662;2024-03-07T05:31:33;57.21;;;55.64;;
82787;SDS011;72529;51.786;4.662;2024-03-07T05:34:02;59.52;;;57.82;;
82787;SDS011;72529;51.786;4.662;2024-03-07T05:36:36;58.13;;;56.70;;
82787;SDS011;72529;51.786;4.662;2024-03-07T05:39:09;59.18;;;57.44;;
82787;SDS011;72529;51.786;4.662;2024-03-07T05:41:39;57.18;;;55.66;;
82787;SDS011;72529;51.786;4.662;2024-03-07T05:44:05;60.24;;;58.34;;
82787;SDS011;72529;51.786;4.662;2024-03-07T05:46:37;58.63;;;57.01;;
82787;SDS011;72529;51.786;4.662;2024-03-07T05:49:07;59.56;;;58.07;;
82787;SDS011;72529;51.786;4.662;2024-03-07T05:51:33;60.23;;;58.09;;
82787;SDS011;72529;51.786;4.662;2024-03-07T05:53:59;60.14;;;58.70;;
82787;SDS011;72529;51.786;4.662;2024-03-07T05:56:24;60.06;;;58.65;;
82787;SDS011;72529;51.786;4.662;2024-03-07T05:58:50;60.81;;;58.63;;
82787;SDS011;72529;51.786;4.662;2024-03-07T06:01:16;60.10;;;58.38;;
82787;SDS011;72529;51.786;4.662;2024-03-07T06:03:43;61.19;;;59.22;;
82787;SDS011;72529;51.786;4.662;2024-03-07T06:06:09;60.51;;;58.70;;
82787;SDS011;72529;51.786;4.662;2024-03-07T06:08:36;60.11;;;58.22;;
82787;SDS011;72529;51.786;4.662;2024-03-07T06:11:02;61.31;;;59.59;;
82787;SDS011;72529;51.786;4.662;2024-03-07T06:13:28;62.40;;;60.62;;
82787;SDS011;72529;51.786;4.662;2024-03-07T06:15:53;60.98;;;59.22;;
82787;SDS011;72529;51.786;4.662;2024-03-07T06:18:19;60.52;;;58.74;;
82787;SDS011;72529;51.786;4.662;2024-03-07T06:20:44;62.91;;;60.91;;
82787;SDS011;72529;51.786;4.662;2024-03-07T06:23:10;62.63;;;60.32;;
82787;SDS011;72529;51.786;4.662;2024-03-07T06:25:41;59.94;;;58.13;;
82787;SDS011;72529;51.786;4.662;2024-03-07T06:28:15;62.08;;;60.24;;
82787;SDS011;72529;51.786;4.662;2024-03-07T06:30:43;62.44;;;60.58;;
82787;SDS011;72529;51.786;4.662;2024-03-07T06:33:13;60.78;;;58.78;;
82787;SDS011;72529;51.786;4.662;2024-03-07T06:35:39;60.27;;;58.33;;
82787;SDS011;72529;51.786;4.662;2024-03-07T06:38:06;61.08;;;58.90;;
82787;SDS011;72529;51.786;4.662;2024-03-07T06:40:36;59.95;;;58.36;;
82787;SDS011;72529;51.786;4.662;2024-03-07T06:43:02;61.25;;;59.00;;
82787;SDS011;72529;51.786;4.662;2024-03-07T06:45:29;61.75;;;59.92;;
82787;SDS011;72529;51.786;4.662;2024-03-07T06:47:55;60.39;;;58.60;;
82787;SDS011;72529;51.786;4.662;2024-03-07T06:50:20;61.51;;;59.78;;
82787;SDS011;72529;51.786;4.662;2024-03-07T06:52:46;61.85;;;59.96;;
82787;SDS011;72529;51.786;4.662;2024-03-07T06:55:16;60.04;;;57.97;;
82787;SDS011;72529;51.786;4.662;2024-03-07T06:57:42;60.82;;;58.71;;
82787;SDS011;72529;51.786;4.662;2024-03-07T07:00:09;61.02;;;59.58;;
82787;SDS011;72529;51.786;4.662;2024-03-07T07:02:38;59.81;;;58.27;;
82787;SDS011;72529;51.786;4.662;2024-03-07T07:05:07;61.06;;;58.80;;
82787;SDS011;72529;51.786;4.662;2024-03-07T07:07:44;60.69;;;58.92;;
82787;SDS011;72529;51.786;4.662;2024-03-07T07:10:10;62.03;;;60.07;;
82787;SDS011;72529;51.786;4.662;2024-03-07T07:12:48;62.00;;;60.04;;
82787;SDS011;72529;51.786;4.662;2024-03-07T07:15:16;62.69;;;61.19;;
82787;SDS011;72529;51.786;4.662;2024-03-07T07:17:46;62.85;;;61.06;;
82787;SDS011;72529;51.786;4.662;2024-03-07T07:20:14;61.75;;;60.02;;
82787;SDS011;72529;51.786;4.662;2024-03-07T07:22:41;59.64;;;58.05;;
82787;SDS011;72529;51.786;4.662;2024-03-07T07:25:07;61.43;;;59.62;;
82787;SDS011;72529;51.786;4.662;2024-03-07T07:27:40;61.19;;;59.76;;
82787;SDS011;72529;51.786;4.662;2024-03-07T07:30:08;61.20;;;59.71;;
82787;SDS011;72529;51.786;4.662;2024-03-07T07:32:35;63.38;;;61.40;;
82787;SDS011;72529;51.786;4.662;2024-03-07T07:35:01;62.17;;;60.51;;
82787;SDS011;72529;51.786;4.662;2024-03-07T07:37:27;62.34;;;60.71;;
82787;SDS011;72529;51.786;4.662;2024-03-07T07:39:53;61.94;;;60.28;;
82787;SDS011;72529;51.786;4.662;2024-03-07T07:42:18;61.85;;;59.92;;
82787;SDS011;72529;51.786;4.662;2024-03-07T07:44:44;62.17;;;60.63;;
82787;SDS011;72529;51.786;4.662;2024-03-07T07:47:10;61.18;;;59.77;;
82787;SDS011;72529;51.786;4.662;2024-03-07T07:49:36;63.08;;;61.02;;
82787;SDS011;72529;51.786;4.662;2024-03-07T07:52:05;62.56;;;60.67;;
82787;SDS011;72529;51.786;4.662;2024-03-07T07:54:31;61.30;;;59.72;;
82787;SDS011;72529;51.786;4.662;2024-03-07T07:56:56;61.45;;;59.73;;
82787;SDS011;72529;51.786;4.662;2024-03-07T07:59:22;62.56;;;60.68;;
82787;SDS011;72529;51.786;4.662;2024-03-07T08:01:47;61.72;;;59.99;;
82787;SDS011;72529;51.786;4.662;2024-03-07T08:04:13;60.57;;;59.02;;
82787;SDS011;72529;51.786;4.662;2024-03-07T08:06:39;62.18;;;60.64;;
82787;SDS011;72529;51.786;4.662;2024-03-07T08:09:04;61.40;;;59.71;;
82787;SDS011;72529;51.786;4.662;2024-03-07T08:11:35;62.33;;;60.61;;
82787;SDS011;72529;51.786;4.662;2024-03-07T08:14:02;60.66;;;59.08;;
82787;SDS011;72529;51.786;4.662;2024-03-07T08:16:27;59.87;;;58.25;;
82787;SDS011;72529;51.786;4.662;2024-03-07T08:18:53;59.35;;;57.97;;
82787;SDS011;72529;51.786;4.662;2024-03-07T08:21:18;58.40;;;57.06;;
82787;SDS011;72529;51.786;4.662;2024-03-07T08:23:44;56.25;;;54.68;;
82787;SDS011;72529;51.786;4.662;2024-03-07T08:26:11;55.43;;;54.09;;
82787;SDS011;72529;51.786;4.662;2024-03-07T08:28:37;55.29;;;53.90;;
82787;SDS011;72529;51.786;4.662;2024-03-07T08:31:02;53.81;;;52.46;;
82787;SDS011;72529;51.786;4.662;2024-03-07T08:33:29;51.71;;;50.70;;
82787;SDS011;72529;51.786;4.662;2024-03-07T08:35:58;51.80;;;50.61;;
82787;SDS011;72529;51.786;4.662;2024-03-07T08:38:24;49.84;;;48.93;;
82787;SDS011;72529;51.786;4.662;2024-03-07T08:40:50;50.29;;;49.41;;
82787;SDS011;72529;51.786;4.662;2024-03-07T08:43:15;51.00;;;49.87;;
82787;SDS011;72529;51.786;4.662;2024-03-07T08:45:41;49.94;;;48.94;;
82787;SDS011;72529;51.786;4.662;2024-03-07T08:48:06;50.42;;;49.38;;
82787;SDS011;72529;51.786;4.662;2024-03-07T08:50:33;50.18;;;48.91;;
82787;SDS011;72529;51.786;4.662;2024-03-07T08:52:59;49.13;;;47.86;;
82787;SDS011;72529;51.786;4.662;2024-03-07T08:55:25;48.19;;;47.37;;
82787;SDS011;72529;51.786;4.662;2024-03-07T08:57:51;47.97;;;46.84;;
82787;SDS011;72529;51.786;4.662;2024-03-07T09:00:17;46.04;;;45.18;;
82787;SDS011;72529;51.786;4.662;2024-03-07T09:02:50;45.17;;;44.41;;
82787;SDS011;72529;51.786;4.662;2024-03-07T09:05:19;43.88;;;43.06;;
82787;SDS011;72529;51.786;4.662;2024-03-07T09:07:47;44.17;;;43.29;;
82787;SDS011;72529;51.786;4.662;2024-03-07T09:10:14;42.89;;;41.88;;
82787;SDS011;72529;51.786;4.662;2024-03-07T09:12:40;41.93;;;41.00;;
82787;SDS011;72529;51.786;4.662;2024-03-07T09:15:05;41.20;;;40.40;;
82787;SDS011;72529;51.786;4.662;2024-03-07T09:17:31;40.09;;;39.77;;
82787;SDS011;72529;51.786;4.662;2024-03-07T09:19:57;39.60;;;39.11;;
82787;SDS011;72529;51.786;4.662;2024-03-07T09:22:22;38.59;;;37.83;;
82787;SDS011;72529;51.786;4.662;2024-03-07T09:24:48;39.35;;;38.69;;
82787;SDS011;72529;51.786;4.662;2024-03-07T09:27:13;40.15;;;39.26;;
82787;SDS011;72529;51.786;4.662;2024-03-07T09:29:40;39.19;;;38.36;;
82787;SDS011;72529;51.786;4.662;2024-03-07T09:32:06;38.91;;;38.40;;
82787;SDS011;72529;51.786;4.662;2024-03-07T09:34:34;38.52;;;37.95;;
82787;SDS011;72529;51.786;4.662;2024-03-07T09:37:01;39.43;;;38.33;;
82787;SDS011;72529;51.786;4.662;2024-03-07T09:39:27;37.25;;;36.55;;
82787;SDS011;72529;51.786;4.662;2024-03-07T09:41:53;37.18;;;36.61;;
82787;SDS011;72529;51.786;4.662;2024-03-07T09:44:20;36.61;;;35.95;;
82787;SDS011;72529;51.786;4.662;2024-03-07T09:46:52;35.72;;;35.13;;
82787;SDS011;72529;51.786;4.662;2024-03-07T09:49:20;36.47;;;35.91;;
82787;SDS011;72529;51.786;4.662;2024-03-07T09:51:47;36.41;;;35.81;;
82787;SDS011;72529;51.786;4.662;2024-03-07T09:54:20;36.09;;;35.47;;
82787;SDS011;72529;51.786;4.662;2024-03-07T09:56:46;36.69;;;36.23;;
82787;SDS011;72529;51.786;4.662;2024-03-07T09:59:14;35.01;;;34.74;;
82787;SDS011;72529;51.786;4.662;2024-03-07T10:01:45;34.60;;;34.10;;
82787;SDS011;72529;51.786;4.662;2024-03-07T10:04:15;34.46;;;33.83;;
82787;SDS011;72529;51.786;4.662;2024-03-07T10:06:54;34.23;;;33.69;;
82787;SDS011;72529;51.786;4.662;2024-03-07T10:09:20;34.61;;;34.04;;
82787;SDS011;72529;51.786;4.662;2024-03-07T10:11:59;34.34;;;33.81;;
82787;SDS011;72529;51.786;4.662;2024-03-07T10:14:25;34.12;;;33.67;;
82787;SDS011;72529;51.786;4.662;2024-03-07T10:16:53;34.07;;;33.61;;
82787;SDS011;72529;51.786;4.662;2024-03-07T10:19:21;34.47;;;33.79;;
82787;SDS011;72529;51.786;4.662;2024-03-07T10:21:46;34.64;;;34.17;;
82787;SDS011;72529;51.786;4.662;2024-03-07T10:24:12;34.34;;;33.91;;
82787;SDS011;72529;51.786;4.662;2024-03-07T10:26:37;34.27;;;33.77;;
82787;SDS011;72529;51.786;4.662;2024-03-07T10:29:06;34.00;;;33.36;;
82787;SDS011;72529;51.786;4.662;2024-03-07T10:31:35;32.13;;;31.73;;
82787;SDS011;72529;51.786;4.662;2024-03-07T10:34:04;31.69;;;31.24;;
82787;SDS011;72529;51.786;4.662;2024-03-07T10:36:32;30.68;;;30.34;;
82787;SDS011;72529;51.786;4.662;2024-03-07T10:38:58;30.25;;;30.00;;
82787;SDS011;72529;51.786;4.662;2024-03-07T10:41:29;32.49;;;31.85;;
82787;SDS011;72529;51.786;4.662;2024-03-07T10:44:01;31.34;;;30.88;;
82787;SDS011;72529;51.786;4.662;2024-03-07T10:46:30;31.95;;;31.54;;
82787;SDS011;72529;51.786;4.662;2024-03-07T10:48:57;32.60;;;31.98;;
82787;SDS011;72529;51.786;4.662;2024-03-07T10:51:33;33.57;;;33.29;;
82787;SDS011;72529;51.786;4.662;2024-03-07T10:57:05;33.72;;;33.25;;
82787;SDS011;72529;51.786;4.662;2024-03-07T10:59:49;32.47;;;31.85;;
82787;SDS011;72529;51.786;4.662;2024-03-07T11:05:10;32.82;;;32.23;;
82787;SDS011;72529;51.786;4.662;2024-03-07T11:07:37;32.69;;;32.19;;
82787;SDS011;72529;51.786;4.662;2024-03-07T11:10:04;31.42;;;31.18;;
82787;SDS011;72529;51.786;4.662;2024-03-07T11:12:36;31.77;;;31.38;;
82787;SDS011;72529;51.786;4.662;2024-03-07T11:15:06;30.74;;;30.24;;
82787;SDS011;72529;51.786;4.662;2024-03-07T11:17:43;31.70;;;31.13;;
82787;SDS011;72529;51.786;4.662;2024-03-07T11:20:21;31.94;;;31.36;;
82787;SDS011;72529;51.786;4.662;2024-03-07T11:22:50;31.51;;;30.93;;
82787;SDS011;72529;51.786;4.662;2024-03-07T11:25:19;31.26;;;30.75;;
82787;SDS011;72529;51.786;4.662;2024-03-07T11:27:54;30.12;;;29.68;;
82787;SDS011;72529;51.786;4.662;2024-03-07T11:30:25;30.60;;;30.15;;
82787;SDS011;72529;51.786;4.662;2024-03-07T11:32:51;31.40;;;30.92;;
82787;SDS011;72529;51.786;4.662;2024-03-07T11:35:21;32.41;;;31.78;;
82787;SDS011;72529;51.786;4.662;2024-03-07T11:37:57;32.00;;;31.42;;
82787;SDS011;72529;51.786;4.662;2024-03-07T11:42:53;32.64;;;32.15;;
82787;SDS011;72529;51.786;4.662;2024-03-07T11:45:24;32.41;;;31.91;;
82787;SDS011;72529;51.786;4.662;2024-03-07T11:47:53;32.51;;;32.00;;
82787;SDS011;72529;51.786;4.662;2024-03-07T11:50:25;32.64;;;32.10;;
82787;SDS011;72529;51.786;4.662;2024-03-07T11:52:52;31.30;;;30.81;;
82787;SDS011;72529;51.786;4.662;2024-03-07T11:55:20;32.81;;;32.27;;
82787;SDS011;72529;51.786;4.662;2024-03-07T11:57:49;35.12;;;34.32;;
82787;SDS011;72529;51.786;4.662;2024-03-07T12:00:17;33.52;;;32.83;;
82787;SDS011;72529;51.786;4.662;2024-03-07T12:02:43;33.85;;;33.06;;
82787;SDS011;72529;51.786;4.662;2024-03-07T12:05:09;33.06;;;32.46;;
82787;SDS011;72529;51.786;4.662;2024-03-07T12:07:35;31.99;;;31.71;;
82787;SDS011;72529;51.786;4.662;2024-03-07T12:10:02;32.66;;;32.16;;
82787;SDS011;72529;51.786;4.662;2024-03-07T12:12:31;32.59;;;32.26;;
82787;SDS011;72529;51.786;4.662;2024-03-07T12:14:58;31.68;;;31.02;;
82787;SDS011;72529;51.786;4.662;2024-03-07T12:17:24;31.86;;;31.38;;
82787;SDS011;72529;51.786;4.662;2024-03-07T12:19:50;31.57;;;30.98;;
82787;SDS011;72529;51.786;4.662;2024-03-07T12:22:18;31.90;;;31.32;;
82787;SDS011;72529;51.786;4.662;2024-03-07T12:24:48;32.64;;;32.10;;
82787;SDS011;72529;51.786;4.662;2024-03-07T12:27:27;32.43;;;31.85;;
82787;SDS011;72529;51.786;4.662;2024-03-07T12:29:53;32.89;;;32.29;;
82787;SDS011;72529;51.786;4.662;2024-03-07T12:32:19;32.41;;;31.82;;
82787;SDS011;72529;51.786;4.662;2024-03-07T12:34:46;31.69;;;31.11;;
82787;SDS011;72529;51.786;4.662;2024-03-07T12:37:12;31.43;;;31.02;;
82787;SDS011;72529;51.786;4.662;2024-03-07T12:39:44;31.11;;;30.64;;
82787;SDS011;72529;51.786;4.662;2024-03-07T12:42:17;30.30;;;29.68;;
82787;SDS011;72529;51.786;4.662;2024-03-07T12:44:45;29.82;;;29.34;;
82787;SDS011;72529;51.786;4.662;2024-03-07T12:47:15;29.77;;;29.15;;
82787;SDS011;72529;51.786;4.662;2024-03-07T12:49:41;29.49;;;29.02;;
82787;SDS011;72529;51.786;4.662;2024-03-07T12:52:13;29.03;;;28.51;;
82787;SDS011;72529;51.786;4.662;2024-03-07T12:54:40;29.90;;;29.22;;
82787;SDS011;72529;51.786;4.662;2024-03-07T12:57:10;30.21;;;29.67;;
82787;SDS011;72529;51.786;4.662;2024-03-07T12:59:39;29.82;;;29.38;;
82787;SDS011;72529;51.786;4.662;2024-03-07T13:02:08;30.08;;;29.48;;
82787;SDS011;72529;51.786;4.662;2024-03-07T13:04:34;29.99;;;29.43;;
82787;SDS011;72529;51.786;4.662;2024-03-07T13:07:03;30.38;;;29.70;;
82787;SDS011;72529;51.786;4.662;2024-03-07T13:09:35;30.35;;;29.67;;
82787;SDS011;72529;51.786;4.662;2024-03-07T13:12:01;30.56;;;30.14;;
82787;SDS011;72529;51.786;4.662;2024-03-07T13:14:29;31.24;;;30.85;;
82787;SDS011;72529;51.786;4.662;2024-03-07T13:17:01;31.93;;;31.27;;
82787;SDS011;72529;51.786;4.662;2024-03-07T13:19:31;32.24;;;31.74;;
82787;SDS011;72529;51.786;4.662;2024-03-07T13:21:57;32.83;;;32.45;;
82787;SDS011;72529;51.786;4.662;2024-03-07T13:24:23;31.99;;;31.53;;
82787;SDS011;72529;51.786;4.662;2024-03-07T13:26:51;32.79;;;32.46;;
82787;SDS011;72529;51.786;4.662;2024-03-07T13:29:18;32.48;;;32.12;;
82787;SDS011;72529;51.786;4.662;2024-03-07T13:31:49;32.72;;;32.14;;
82787;SDS011;72529;51.786;4.662;2024-03-07T13:34:16;34.44;;;33.99;;
82787;SDS011;72529;51.786;4.662;2024-03-07T13:36:43;33.73;;;33.58;;
82787;SDS011;72529;51.786;4.662;2024-03-07T13:39:10;35.30;;;34.87;;
82787;SDS011;72529;51.786;4.662;2024-03-07T13:41:39;36.78;;;36.36;;
82787;SDS011;72529;51.786;4.662;2024-03-07T13:44:05;36.94;;;36.70;;
82787;SDS011;72529;51.786;4.662;2024-03-07T13:46:31;36.35;;;36.08;;
82787;SDS011;72529;51.786;4.662;2024-03-07T13:49:01;38.30;;;37.76;;
82787;SDS011;72529;51.786;4.662;2024-03-07T13:51:42;39.43;;;38.97;;
82787;SDS011;72529;51.786;4.662;2024-03-07T13:54:28;37.86;;;37.60;;
82787;SDS011;72529;51.786;4.662;2024-03-07T14:02:59;40.60;;;40.22;;
82787;SDS011;72529;51.786;4.662;2024-03-07T14:06:06;40.11;;;39.80;;
82787;SDS011;72529;51.786;4.662;2024-03-07T14:15:02;37.97;;;37.25;;
82787;SDS011;72529;51.786;4.662;2024-03-07T14:20:54;36.74;;;35.90;;
82787;SDS011;72529;51.786;4.662;2024-03-07T14:29:54;30.41;;;30.07;;
82787;SDS011;72529;51.786;4.662;2024-03-07T14:33:05;30.14;;;29.59;;
82787;SDS011;72529;51.786;4.662;2024-03-07T14:39:06;31.05;;;30.65;;
82787;SDS011;72529;51.786;4.662;2024-03-07T14:41:19;30.83;;;30.39;;
82787;SDS011;72529;51.786;4.662;2024-03-07T14:43:50;30.81;;;30.37;;
82787;SDS011;72529;51.786;4.662;2024-03-07T14:46:16;30.60;;;30.11;;
82787;SDS011;72529;51.786;4.662;2024-03-07T14:48:43;31.93;;;31.38;;
82787;SDS011;72529;51.786;4.662;2024-03-07T14:51:09;30.63;;;30.23;;
82787;SDS011;72529;51.786;4.662;2024-03-07T14:53:39;30.50;;;30.04;;
82787;SDS011;72529;51.786;4.662;2024-03-07T14:56:06;30.63;;;30.29;;
82787;SDS011;72529;51.786;4.662;2024-03-07T14:58:34;31.47;;;31.01;;